createdAt,value
2024-01-30T00:28:11.792Z,99.90001
2024-01-30T00:58:30.276Z,99.90001
2024-01-30T01:28:48.579Z,99.90001
2024-01-30T01:59:06.841Z,99.90001
2024-01-30T02:29:25.330Z,99.90001
2024-01-30T02:59:41.862Z,99.90001
2024-01-30T03:29:59.915Z,99.90001
2024-01-30T04:00:20.071Z,99.90001
2024-01-30T04:30:37.565Z,99.90001
2024-01-30T05:00:57.433Z,99.90001
2024-01-30T05:31:16.590Z,99.90001
2024-01-30T06:01:34.792Z,99.90001
2024-01-30T06:31:55.126Z,99.90001
2024-01-30T07:02:13.704Z,99.90001
2024-01-30T07:32:33.281Z,99.90001
2024-01-30T08:02:53.912Z,99.90001
2024-01-30T08:33:15.741Z,99.90001
2024-01-30T09:03:35.874Z,99.90001
2024-01-30T09:33:55.768Z,99.90001
2024-01-30T10:04:26.876Z,99.90001
2024-01-30T10:34:46.872Z,99.90001
2024-01-30T11:05:07.826Z,98.4
2024-01-30T11:35:29.095Z,95.4
2024-01-30T12:36:07.712Z,93.9
2024-01-30T13:06:27.476Z,93.30001
2024-01-30T13:36:43.885Z,92.3
2024-01-30T14:07:05.230Z,92.9
2024-01-30T14:37:22.720Z,95.2
2024-01-30T15:07:40.738Z,95.9
2024-01-30T15:38:00.030Z,98.30001
2024-01-30T16:08:18.920Z,99.1
2024-01-30T16:38:36.608Z,99.40001
2024-01-30T17:08:54.410Z,99.90001
2024-01-30T17:39:12.174Z,99.90001
2024-01-30T18:09:31.511Z,99.90001
2024-01-30T18:39:51.644Z,99.90001
2024-01-30T19:10:11.299Z,99.90001
2024-01-30T19:40:30.156Z,99.90001
2024-01-30T20:10:48.434Z,99.90001
2024-01-30T20:41:07.682Z,99.90001
2024-01-30T21:11:25.483Z,99.90001
2024-01-30T21:41:45.300Z,99.90001
2024-01-30T22:12:04.516Z,99.90001
2024-01-30T22:42:22.602Z,99.90001
2024-01-30T23:12:41.134Z,99.90001
2024-01-30T23:42:58.945Z,99.90001
